Time;durP1;ratioP1;P1;durP2;ratioP2;P2;SDS_P1;SDS_P2;PMS_P1;PMS_P2;Temp;Humidity;BMP_temperature;BMP_pressure;BME280_temperature;BME280_humidity;BME280_pressure;Samples;Min_cycle;Max_cycle;Signal;HPM_P1;HPM_P2
2022/12/24 00:00:05;;;;;;;2.88;1.25;;;9.90;99.90;;;;;;5017981;28;20044;-88
2022/12/24 11:16:04;;;;;;;2.70;0.95;;;10.20;90.40;;;;;;5025788;28;20112;-83
2022/12/24 11:18:33;;;;;;;3.50;0.80;;;10.30;90.50;;;;;;5031252;28;20075;-82
2022/12/24 11:21:00;;;;;;;4.57;1.02;;;10.40;90.10;;;;;;5038968;28;20037;-82
2022/12/24 11:23:27;;;;;;;3.70;0.90;;;10.60;89.70;;;;;;5004967;28;20021;-83
2022/12/24 11:25:55;;;;;;;3.95;0.77;;;10.70;89.10;;;;;;5019994;28;20048;-83
2022/12/24 11:28:25;;;;;;;2.15;0.60;;;10.80;87.90;;;;;;5021700;28;20033;-83
2022/12/24 11:31:00;;;;;;;2.97;0.85;;;10.90;87.90;;;;;;5039430;28;20022;-84
2022/12/24 11:33:28;;;;;;;3.70;0.90;;;10.90;87.40;;;;;;5038985;28;20108;-83
2022/12/24 11:36:03;;;;;;;2.10;0.82;;;10.80;88.20;;;;;;5038710;28;20026;-83
2022/12/24 11:38:32;;;;;;;3.25;0.80;;;10.80;87.00;;;;;;5038675;28;20092;-83
2022/12/24 11:41:08;;;;;;;4.57;0.80;;;10.90;87.10;;;;;;5017153;28;20041;-82
2022/12/24 11:43:43;;;;;;;2.38;0.90;;;10.80;87.40;;;;;;5021532;28;20016;-84
2022/12/24 11:46:34;;;;;;;2.78;0.40;;;10.80;87.60;;;;;;5038794;28;20038;-83
2022/12/24 11:49:22;;;;;;;2.80;0.88;;;10.70;87.90;;;;;;5021136;28;20029;-83
2022/12/24 11:52:11;;;;;;;2.22;1.20;;;10.70;87.80;;;;;;5035112;28;20080;-83
2022/12/24 11:55:15;;;;;;;1.88;0.90;;;10.80;87.70;;;;;;5021131;28;20022;-83
2022/12/24 11:57:54;;;;;;;4.38;1.10;;;10.90;87.10;;;;;;5019777;28;20138;-82
2022/12/24 12:00:20;;;;;;;2.30;0.73;;;10.90;87.10;;;;;;5023280;28;20361;-82
2022/12/24 12:02:49;;;;;;;2.13;0.70;;;11.00;86.80;;;;;;5023370;28;20045;-83
2022/12/24 12:05:17;;;;;;;2.80;0.77;;;10.90;86.50;;;;;;5029120;28;20061;-82
2022/12/24 12:07:46;;;;;;;2.75;0.80;;;10.90;86.80;;;;;;5023055;28;20026;-83
2022/12/24 12:10:35;;;;;;;3.80;0.80;;;10.80;87.40;;;;;;5029346;28;20018;-82
2022/12/24 12:13:36;;;;;;;2.58;0.80;;;10.70;87.70;;;;;;5033338;28;20022;-82
2022/12/24 12:16:25;;;;;;;3.85;1.00;;;10.70;87.80;;;;;;5020120;28;20030;-83
2022/12/24 12:18:59;;;;;;;1.55;0.90;;;10.60;88.20;;;;;;5025278;28;20038;-83
2022/12/24 12:21:37;;;;;;;4.97;1.30;;;10.60;88.60;;;;;;5038304;28;20085;-84
2022/12/24 12:24:11;;;;;;;2.05;0.63;;;10.50;89.10;;;;;;5034431;28;20440;-82
2022/12/24 12:26:39;;;;;;;2.67;0.82;;;10.50;89.00;;;;;;5025617;28;20045;-83
2022/12/24 12:29:24;;;;;;;3.60;0.95;;;10.50;89.30;;;;;;5022684;28;20018;-83
2022/12/24 12:31:59;;;;;;;1.52;0.85;;;10.50;89.90;;;;;;5027262;28;20022;-82
2022/12/24 12:34:41;;;;;;;2.45;1.20;;;10.50;90.00;;;;;;5014330;28;20065;-82
2022/12/24 12:37:20;;;;;;;2.75;0.90;;;10.40;90.20;;;;;;5013733;28;20031;-82
2022/12/24 12:39:46;;;;;;;2.33;1.42;;;10.30;90.40;;;;;;5023174;28;20053;-82
2022/12/24 12:42:29;;;;;;;2.75;0.80;;;10.30;90.60;;;;;;5001410;28;20424;-83
2022/12/24 12:45:22;;;;;;;2.80;1.27;;;10.30;90.60;;;;;;5001653;28;20209;-82
2022/12/24 12:48:20;;;;;;;2.85;0.98;;;10.30;90.80;;;;;;5019061;28;20049;-82
2022/12/24 12:51:18;;;;;;;1.42;0.68;;;10.30;90.90;;;;;;5018963;28;20115;-83
2022/12/24 12:53:49;;;;;;;2.10;1.00;;;10.30;91.30;;;;;;5000516;28;20033;-83
2022/12/24 12:56:35;;;;;;;1.70;0.98;;;10.40;90.80;;;;;;5019304;28;20040;-83
2022/12/24 12:59:25;;;;;;;3.22;1.00;;;10.40;90.90;;;;;;5018831;28;20052;-83
2022/12/24 13:02:17;;;;;;;4.13;0.77;;;10.40;90.90;;;;;;5019207;28;20068;-84
2022/12/24 13:05:05;;;;;;;2.45;0.77;;;10.40;91.10;;;;;;5014038;28;20046;-84
2022/12/24 13:07:43;;;;;;;2.80;0.90;;;10.40;91.00;;;;;;5019086;28;20381;-83
2022/12/24 13:10:35;;;;;;;3.05;1.00;;;10.40;91.10;;;;;;5011300;28;20026;-84
2022/12/24 13:13:32;;;;;;;2.77;1.23;;;10.40;91.20;;;;;;5019882;28;20046;-84
2022/12/24 13:16:23;;;;;;;2.15;0.70;;;10.40;91.30;;;;;;5020283;28;20080;-81
2022/12/24 13:19:00;;;;;;;1.70;0.93;;;10.50;91.30;;;;;;5011211;28;20064;-81
2022/12/24 13:21:29;;;;;;;3.22;0.93;;;10.50;91.20;;;;;;5021783;28;20088;-82
2022/12/24 13:24:21;;;;;;;2.95;1.00;;;10.40;90.80;;;;;;5018053;28;20026;-84
2022/12/24 13:27:26;;;;;;;3.63;1.13;;;10.40;91.00;;;;;;5017912;28;20041;-83
2022/12/24 13:30:12;;;;;;;2.92;1.38;;;10.40;91.10;;;;;;5036244;28;20026;-83
2022/12/24 13:32:52;;;;;;;2.17;1.35;;;10.50;90.90;;;;;;5020897;28;20029;-82
2022/12/24 13:35:17;;;;;;;3.10;0.95;;;10.50;91.00;;;;;;4999853;28;20029;-84
2022/12/24 13:37:45;;;;;;;3.20;1.08;;;10.50;91.10;;;;;;5017604;28;20114;-83
2022/12/24 13:40:10;;;;;;;2.38;1.10;;;10.50;91.10;;;;;;4999994;28;20441;-82
2022/12/24 13:42:59;;;;;;;3.03;1.23;;;10.40;91.10;;;;;;4999124;28;20508;-82
2022/12/24 13:45:30;;;;;;;2.30;1.85;;;10.40;91.10;;;;;;5017609;28;20045;-82
2022/12/24 13:48:05;;;;;;;4.63;2.17;;;10.30;91.60;;;;;;4999646;28;20021;-83
2022/12/24 13:51:18;;;;;;;3.45;2.00;;;10.30;91.30;;;;;;5016526;28;20477;-83
2022/12/24 13:53:47;;;;;;;3.38;1.30;;;10.20;91.50;;;;;;4983496;28;20049;-84
2022/12/24 13:56:13;;;;;;;1.95;1.02;;;10.30;91.40;;;;;;4999399;28;20540;-83
2022/12/24 13:58:44;;;;;;;8.80;3.53;;;10.30;91.40;;;;;;5016226;28;20113;-83
2022/12/24 14:01:14;;;;;;;3.42;1.90;;;10.30;91.40;;;;;;5018851;28;20076;-83
2022/12/24 14:03:47;;;;;;;3.20;1.23;;;10.30;91.50;;;;;;5021072;28;20033;-83
2022/12/24 14:06:26;;;;;;;4.07;2.33;;;10.40;91.10;;;;;;5004444;28;20014;-83
2022/12/24 14:08:55;;;;;;;3.70;1.60;;;10.30;91.20;;;;;;5004217;28;20061;-83
2022/12/24 14:11:23;;;;;;;6.80;1.33;;;10.30;91.40;;;;;;5016790;28;20025;-83
2022/12/24 14:13:53;;;;;;;1.55;0.80;;;10.20;91.60;;;;;;4999044;28;20055;-83
2022/12/24 14:16:27;;;;;;;1.80;1.10;;;10.10;91.90;;;;;;4999367;28;20026;-83
2022/12/24 14:19:19;;;;;;;2.55;0.70;;;10.00;92.10;;;;;;4960099;28;1142977;-83
2022/12/24 14:22:03;;;;;;;5.40;1.10;;;9.90;92.40;;;;;;5016691;28;20006;-83
2022/12/24 14:24:36;;;;;;;3.67;0.98;;;9.90;92.50;;;;;;5017100;28;20037;-84
2022/12/24 14:27:24;;;;;;;2.15;0.80;;;10.00;92.50;;;;;;4999310;28;20026;-84
2022/12/24 14:30:06;;;;;;;3.13;1.15;;;10.00;92.50;;;;;;5019662;28;20050;-83
2022/12/24 14:32:41;;;;;;;2.33;1.00;;;10.00;92.50;;;;;;4999549;28;20022;-83
2022/12/24 14:35:13;;;;;;;4.15;1.15;;;9.90;92.70;;;;;;5016805;28;20038;-83
2022/12/24 14:37:44;;;;;;;7.10;1.20;;;9.90;92.90;;;;;;4998408;28;20045;-83
2022/12/24 14:40:17;;;;;;;0.93;0.52;;;9.90;92.90;;;;;;5017435;28;20018;-84
2022/12/24 14:42:55;;;;;;;3.55;1.00;;;9.80;92.90;;;;;;5017762;28;20441;-84
2022/12/24 14:45:46;;;;;;;8.55;1.77;;;9.80;93.00;;;;;;5017613;28;20022;-85
2022/12/24 14:48:33;;;;;;;1.30;1.00;;;9.80;93.10;;;;;;5016685;28;20073;-85
2022/12/24 14:51:25;;;;;;;2.85;1.88;;;9.70;93.30;;;;;;4999800;28;20038;-82
2022/12/24 14:54:13;;;;;;;2.63;1.30;;;9.60;93.50;;;;;;5017732;28;20026;-82
2022/12/24 14:56:39;;;;;;;2.28;1.40;;;9.50;93.70;;;;;;5017239;28;20022;-83
2022/12/24 14:59:19;;;;;;;1.38;1.20;;;9.40;94.00;;;;;;5017223;28;20033;-82
2022/12/24 15:01:45;;;;;;;3.15;1.40;;;9.40;94.30;;;;;;5017557;28;20030;-82
2022/12/24 15:04:13;;;;;;;1.85;1.27;;;9.30;94.40;;;;;;5000412;28;20018;-82
2022/12/24 15:06:56;;;;;;;4.90;1.73;;;9.30;94.60;;;;;;5002695;28;20426;-82
2022/12/24 15:09:24;;;;;;;4.53;2.28;;;9.20;94.80;;;;;;5020110;28;20121;-82
2022/12/24 15:11:54;;;;;;;4.95;2.63;;;9.20;95.10;;;;;;5020160;28;20411;-82
2022/12/24 15:14:22;;;;;;;5.70;3.78;;;9.10;95.30;;;;;;5020397;28;20077;-82
2022/12/24 15:17:00;;;;;;;4.30;2.80;;;9.10;95.50;;;;;;5032558;28;20026;-83
2022/12/24 15:19:36;;;;;;;3.08;1.20;;;9.00;95.80;;;;;;5034800;28;20069;-82
2022/12/24 15:22:06;;;;;;;2.83;1.10;;;9.00;96.10;;;;;;5034372;28;20010;-82
2022/12/24 15:24:44;;;;;;;1.90;1.10;;;9.00;96.20;;;;;;5002621;28;20441;-82
2022/12/24 15:27:18;;;;;;;1.80;1.05;;;9.00;96.40;;;;;;5027331;28;20057;-84
2022/12/24 15:29:48;;;;;;;0.70;0.70;;;9.00;96.50;;;;;;5035842;28;20022;-83
2022/12/24 15:32:15;;;;;;;1.45;0.80;;;8.90;96.60;;;;;;4983531;28;20065;-81
2022/12/24 15:34:44;;;;;;;2.58;1.02;;;8.90;96.70;;;;;;5020041;28;20046;-84
2022/12/24 15:37:12;;;;;;;0.90;0.80;;;8.80;96.90;;;;;;5032829;28;20010;-84
2022/12/24 15:39:39;;;;;;;1.20;0.90;;;8.80;97.00;;;;;;5039175;28;20014;-83
2022/12/24 15:42:12;;;;;;;2.25;1.23;;;8.80;97.10;;;;;;5039375;28;20022;-84
2022/12/24 15:44:42;;;;;;;3.45;1.27;;;8.80;97.30;;;;;;5019608;28;20056;-84
2022/12/24 15:47:27;;;;;;;3.97;1.70;;;8.80;97.40;;;;;;5020771;28;20493;-81
2022/12/24 15:50:15;;;;;;;4.15;1.20;;;8.80;97.50;;;;;;5019330;28;20045;-82
2022/12/24 15:52:42;;;;;;;3.65;1.00;;;8.70;97.60;;;;;;5019915;28;20033;-82
2022/12/24 15:55:37;;;;;;;1.75;1.13;;;8.80;97.70;;;;;;5019693;28;20048;-83
2022/12/24 15:58:25;;;;;;;2.92;1.40;;;8.80;97.70;;;;;;5002018;28;20184;-82
2022/12/24 16:01:07;;;;;;;2.80;1.40;;;8.80;97.80;;;;;;5021162;28;20034;-82
2022/12/24 16:03:37;;;;;;;1.48;0.90;;;8.70;97.90;;;;;;5019274;28;20437;-83
2022/12/24 16:06:08;;;;;;;2.80;1.05;;;8.70;98.00;;;;;;5024220;28;20025;-84
2022/12/24 16:08:38;;;;;;;3.35;0.98;;;8.70;98.10;;;;;;5018954;28;20034;-82
2022/12/24 16:11:04;;;;;;;1.92;1.00;;;8.70;98.20;;;;;;4991219;28;20037;-82
2022/12/24 16:13:37;;;;;;;1.25;0.63;;;8.70;98.30;;;;;;4998392;28;20026;-83
2022/12/24 16:16:04;;;;;;;2.42;1.25;;;8.70;98.40;;;;;;4998313;28;20031;-83
2022/12/24 16:18:52;;;;;;;2.05;1.10;;;8.80;98.40;;;;;;4998054;28;20038;-83
2022/12/24 16:21:30;;;;;;;2.97;1.25;;;8.80;98.40;;;;;;4998580;28;20027;-83
2022/12/24 16:24:05;;;;;;;2.33;0.82;;;8.70;98.40;;;;;;4997585;28;20748;-84
2022/12/24 16:26:34;;;;;;;2.88;1.35;;;8.70;98.40;;;;;;4997991;28;20022;-83
2022/12/24 16:29:00;;;;;;;1.95;1.05;;;8.70;98.50;;;;;;4999689;28;20034;-84
2022/12/24 16:31:35;;;;;;;1.45;0.80;;;8.70;98.50;;;;;;4982819;28;20213;-83
2022/12/24 16:34:02;;;;;;;2.10;0.88;;;8.70;98.50;;;;;;4980921;28;20502;-83
2022/12/24 16:36:29;;;;;;;1.45;0.93;;;8.70;98.60;;;;;;4980543;28;20188;-83
2022/12/24 16:44:26;;;;;;;2.25;1.15;;;8.70;98.70;;;;;;5018016;28;20172;-83
2022/12/24 16:46:59;;;;;;;3.58;0.88;;;8.70;98.70;;;;;;5017853;28;20026;-83
2022/12/24 16:49:27;;;;;;;1.73;1.05;;;8.70;98.80;;;;;;5018205;28;20026;-84
2022/12/24 16:51:53;;;;;;;2.17;1.13;;;8.60;98.90;;;;;;4984606;28;20649;-83
2022/12/24 16:54:19;;;;;;;1.83;1.00;;;8.60;98.90;;;;;;5017775;28;20030;-83
2022/12/24 16:56:45;;;;;;;1.83;1.20;;;8.60;98.90;;;;;;5017707;28;20479;-83
2022/12/24 16:59:21;;;;;;;1.60;0.98;;;8.60;99.30;;;;;;5000195;28;20052;-83
2022/12/24 17:01:47;;;;;;;2.45;1.20;;;8.60;99.10;;;;;;5018158;28;20075;-80
2022/12/24 17:04:13;;;;;;;1.38;1.08;;;8.60;99.20;;;;;;5017717;28;20006;-81
2022/12/24 17:06:39;;;;;;;3.97;2.47;;;8.50;99.20;;;;;;4999963;28;20053;-81
2022/12/24 17:09:06;;;;;;;5.07;3.03;;;8.60;99.30;;;;;;5001589;28;20022;-82
2022/12/24 17:11:32;;;;;;;2.67;2.00;;;8.60;99.30;;;;;;5029529;28;20082;-83
2022/12/24 17:13:58;;;;;;;5.55;2.20;;;8.60;99.30;;;;;;5037198;28;20029;-83
2022/12/24 17:16:23;;;;;;;2.40;1.65;;;8.70;99.20;;;;;;5037446;28;20014;-83
2022/12/24 17:18:51;;;;;;;1.73;1.45;;;8.70;99.10;;;;;;5037504;28;20037;-83
2022/12/24 17:21:17;;;;;;;1.50;1.40;;;8.70;99.00;;;;;;5037625;28;20052;-83
2022/12/24 17:23:43;;;;;;;2.75;1.42;;;8.70;99.00;;;;;;5037399;28;20030;-83
2022/12/24 17:26:10;;;;;;;3.85;1.83;;;8.70;99.00;;;;;;5019742;28;20085;-83
2022/12/24 17:28:36;;;;;;;2.97;1.58;;;8.70;98.90;;;;;;5014325;28;20041;-83
2022/12/24 17:31:10;;;;;;;4.00;1.58;;;8.70;98.90;;;;;;5022910;28;20449;-83
2022/12/24 17:33:36;;;;;;;2.15;1.17;;;8.70;98.90;;;;;;5019794;28;20029;-82
2022/12/24 17:36:02;;;;;;;2.80;1.33;;;8.70;99.00;;;;;;5000495;28;20389;-83
2022/12/24 17:38:28;;;;;;;2.88;1.40;;;8.70;99.00;;;;;;5019808;28;20018;-83
2022/12/24 17:41:09;;;;;;;1.75;1.30;;;8.70;99.00;;;;;;5020444;28;20034;-82
2022/12/24 17:43:35;;;;;;;4.97;1.92;;;8.70;98.90;;;;;;5004330;28;20456;-81
2022/12/24 17:46:16;;;;;;;3.95;2.33;;;8.70;98.80;;;;;;5001136;28;20057;-82
2022/12/24 17:48:42;;;;;;;2.35;1.70;;;8.70;98.80;;;;;;5000993;28;20125;-82
2022/12/24 17:51:11;;;;;;;5.18;1.60;;;8.70;98.80;;;;;;5018173;28;20030;-82
2022/12/24 17:53:38;;;;;;;3.22;1.23;;;8.70;98.70;;;;;;5017948;28;20041;-81
2022/12/24 17:56:05;;;;;;;1.58;1.25;;;8.70;98.60;;;;;;5016819;28;20057;-82
2022/12/24 17:58:31;;;;;;;2.38;1.02;;;8.80;98.60;;;;;;5016841;28;20088;-83
2022/12/24 18:00:58;;;;;;;2.47;1.20;;;8.80;98.60;;;;;;4999606;28;20038;-81
2022/12/24 18:03:24;;;;;;;1.08;0.98;;;8.80;98.70;;;;;;5017167;28;20034;-82
2022/12/24 18:05:52;;;;;;;2.13;1.40;;;8.80;98.70;;;;;;5016871;28;20101;-83
2022/12/24 18:08:18;;;;;;;0.93;0.85;;;8.80;98.70;;;;;;4999303;28;20035;-83
2022/12/24 18:10:44;;;;;;;4.93;1.30;;;8.80;98.60;;;;;;5017573;28;20343;-84
2022/12/24 18:13:10;;;;;;;1.50;1.10;;;8.80;98.60;;;;;;5017505;28;20022;-83
2022/12/24 18:15:39;;;;;;;2.72;1.38;;;8.80;98.60;;;;;;5017582;28;20046;-84
2022/12/24 18:18:06;;;;;;;3.38;1.60;;;8.80;98.50;;;;;;5000849;28;20037;-83
2022/12/24 18:20:34;;;;;;;2.22;1.38;;;8.80;98.50;;;;;;5018627;28;20032;-83
2022/12/24 18:23:00;;;;;;;3.78;2.22;;;8.80;98.60;;;;;;4984330;28;20110;-82
2022/12/24 18:25:26;;;;;;;2.50;1.63;;;8.70;98.50;;;;;;5018283;28;20061;-82
2022/12/24 18:27:52;;;;;;;4.18;1.80;;;8.70;98.60;;;;;;5000947;28;20441;-81
2022/12/24 18:30:20;;;;;;;3.22;1.92;;;8.70;98.60;;;;;;5019481;28;20093;-82
2022/12/24 18:32:48;;;;;;;2.08;1.63;;;8.70;98.60;;;;;;5008483;28;20034;-82
2022/12/24 18:35:14;;;;;;;1.40;1.27;;;8.70;98.70;;;;;;5011191;28;20057;-82
2022/12/24 18:37:42;;;;;;;2.75;1.80;;;8.70;98.70;;;;;;5026190;28;20057;-82
2022/12/24 18:40:08;;;;;;;2.03;1.17;;;8.70;98.70;;;;;;5012256;28;20022;-82
2022/12/24 18:42:34;;;;;;;1.92;1.40;;;8.70;98.70;;;;;;5036253;28;20034;-84
2022/12/24 18:45:00;;;;;;;3.35;1.52;;;8.70;98.70;;;;;;5036271;28;20010;-83
2022/12/24 18:47:27;;;;;;;1.88;1.40;;;8.70;98.80;;;;;;5019230;28;20056;-83
2022/12/24 18:49:53;;;;;;;2.08;1.75;;;8.70;98.80;;;;;;5019315;28;20066;-82
2022/12/24 18:52:18;;;;;;;2.35;1.98;;;8.70;98.80;;;;;;5024029;28;20121;-82
2022/12/24 18:54:47;;;;;;;2.22;1.58;;;8.70;98.90;;;;;;5010728;28;20121;-82
2022/12/24 18:57:13;;;;;;;2.90;1.70;;;8.70;98.90;;;;;;5032483;28;20049;-82
2022/12/24 18:59:39;;;;;;;2.28;1.80;;;8.70;99.00;;;;;;5017008;28;20026;-83
2022/12/24 19:02:05;;;;;;;2.47;1.92;;;8.70;98.90;;;;;;5034512;28;20086;-82
2022/12/24 19:04:37;;;;;;;3.00;1.63;;;8.70;98.90;;;;;;5032400;28;20106;-82
2022/12/24 19:07:03;;;;;;;2.85;1.85;;;8.70;99.00;;;;;;4983356;28;20125;-82
2022/12/24 19:09:29;;;;;;;3.25;2.10;;;8.70;99.00;;;;;;5021308;28;20057;-81
2022/12/24 19:11:54;;;;;;;3.60;1.73;;;8.70;99.00;;;;;;5021000;28;20030;-81
2022/12/24 19:14:20;;;;;;;4.18;1.92;;;8.70;99.10;;;;;;5020958;28;20026;-82
2022/12/24 19:16:46;;;;;;;3.35;1.70;;;8.70;99.20;;;;;;5021617;28;20052;-82
2022/12/24 19:19:11;;;;;;;2.38;1.60;;;8.70;99.20;;;;;;5020502;28;20044;-81
2022/12/24 19:21:37;;;;;;;4.22;2.10;;;8.70;99.10;;;;;;5025517;28;20034;-81
2022/12/24 19:24:03;;;;;;;3.15;1.90;;;8.70;99.20;;;;;;5013211;28;20052;-82
2022/12/24 19:26:29;;;;;;;3.53;2.08;;;8.60;99.10;;;;;;5022473;28;20018;-82
2022/12/24 19:28:55;;;;;;;2.83;1.77;;;8.70;99.10;;;;;;5012224;28;20073;-82
2022/12/24 19:31:24;;;;;;;2.13;1.67;;;8.70;99.20;;;;;;4987277;28;20048;-82
2022/12/24 19:33:53;;;;;;;2.53;1.75;;;8.70;99.20;;;;;;5022932;28;20070;-81
2022/12/24 19:36:25;;;;;;;2.97;2.03;;;8.70;99.20;;;;;;5021903;28;20013;-82
2022/12/24 19:38:51;;;;;;;1.73;1.63;;;8.60;99.20;;;;;;5012779;28;20013;-82
2022/12/24 19:41:22;;;;;;;3.55;2.10;;;8.60;99.20;;;;;;5003605;28;20033;-82
2022/12/24 19:43:50;;;;;;;4.07;2.30;;;8.60;99.30;;;;;;5002353;28;20034;-82
2022/12/24 19:46:18;;;;;;;3.67;2.10;;;8.60;99.30;;;;;;5025946;28;20061;-83
2022/12/24 19:48:52;;;;;;;4.57;2.25;;;8.60;99.40;;;;;;5025145;28;20030;-82
2022/12/24 19:51:18;;;;;;;2.78;2.08;;;8.60;99.40;;;;;;5019097;28;20088;-82
2022/12/24 19:53:45;;;;;;;3.85;2.60;;;8.60;99.50;;;;;;5019071;28;20092;-82
2022/12/24 19:56:17;;;;;;;3.50;2.25;;;8.60;99.50;;;;;;5019530;28;20090;-82
2022/12/24 19:58:44;;;;;;;3.38;2.60;;;8.60;99.50;;;;;;5005851;28;20061;-83
2022/12/24 20:01:21;;;;;;;2.85;2.00;;;8.60;99.50;;;;;;5001809;28;20026;-81
2022/12/24 20:03:49;;;;;;;2.53;1.73;;;8.60;99.50;;;;;;5019461;28;20048;-81
2022/12/24 20:06:17;;;;;;;3.40;2.40;;;8.60;99.50;;;;;;5001349;28;20603;-82
2022/12/24 20:08:43;;;;;;;3.53;2.30;;;8.50;99.60;;;;;;5001470;28;20307;-82
2022/12/24 20:11:12;;;;;;;3.13;2.35;;;8.50;99.60;;;;;;5001399;28;20516;-82
2022/12/24 20:13:39;;;;;;;4.38;2.83;;;8.50;99.70;;;;;;5019769;28;20477;-82
2022/12/24 20:16:07;;;;;;;5.47;3.47;;;8.50;99.80;;;;;;5000849;28;20137;-82
2022/12/24 20:18:33;;;;;;;5.18;3.08;;;8.50;99.80;;;;;;5018620;28;20505;-82
2022/12/24 20:21:05;;;;;;;4.30;2.95;;;8.50;99.90;;;;;;5018320;28;20022;-82
2022/12/24 20:23:31;;;;;;;4.30;3.42;;;8.50;99.90;;;;;;5018022;28;20141;-81
2022/12/24 20:25:58;;;;;;;5.28;3.53;;;8.40;99.90;;;;;;5018267;28;20052;-81
2022/12/24 20:28:25;;;;;;;3.53;2.70;;;8.50;99.90;;;;;;5018169;28;20054;-84
2022/12/24 20:30:51;;;;;;;4.70;3.05;;;8.50;99.90;;;;;;5017764;28;20030;-83
2022/12/24 20:33:17;;;;;;;6.10;3.33;;;8.40;99.90;;;;;;5017949;28;20382;-83
2022/12/24 20:35:42;;;;;;;4.55;3.15;;;8.40;99.90;;;;;;5018764;28;20074;-83
2022/12/24 20:38:08;;;;;;;4.45;2.70;;;8.50;99.90;;;;;;5017850;28;20022;-83
2022/12/24 20:40:34;;;;;;;4.18;2.63;;;8.50;99.90;;;;;;5017734;28;20029;-84
2022/12/24 20:42:59;;;;;;;3.08;2.58;;;8.40;99.90;;;;;;5016195;28;20065;-83
2022/12/24 20:45:25;;;;;;;4.80;3.03;;;8.50;99.90;;;;;;5017777;28;20511;-83
2022/12/24 20:47:51;;;;;;;5.00;2.97;;;8.40;99.90;;;;;;5004339;28;20037;-83
2022/12/24 20:50:17;;;;;;;4.57;2.50;;;8.40;99.90;;;;;;5019092;28;20022;-83
2022/12/24 20:52:43;;;;;;;3.95;2.70;;;8.40;99.90;;;;;;5000360;28;20069;-83
2022/12/24 20:55:08;;;;;;;4.50;2.30;;;8.40;99.90;;;;;;5017624;28;20033;-83
2022/12/24 20:57:34;;;;;;;5.88;2.70;;;8.40;99.90;;;;;;5017728;28;20026;-83
2022/12/24 21:00:00;;;;;;;3.50;2.28;;;8.40;99.90;;;;;;5022384;28;20413;-83
2022/12/24 21:02:25;;;;;;;2.60;2.38;;;8.40;99.90;;;;;;5026784;28;20026;-83
2022/12/24 21:04:51;;;;;;;3.13;2.45;;;8.40;99.90;;;;;;5014792;28;20061;-83
2022/12/24 21:07:17;;;;;;;4.68;2.40;;;8.40;99.90;;;;;;5017761;28;20102;-82
2022/12/24 21:09:42;;;;;;;3.42;2.90;;;8.40;99.90;;;;;;5028705;28;20041;-83
2022/12/24 21:14:54;;;;;;;3.30;2.38;;;8.40;99.90;;;;;;5019880;28;20076;-83
2022/12/24 21:17:21;;;;;;;4.00;2.63;;;8.50;99.90;;;;;;5018963;28;20465;-83
2022/12/24 21:19:47;;;;;;;3.50;2.45;;;8.40;99.90;;;;;;5022042;28;20077;-83
2022/12/24 21:22:13;;;;;;;3.80;2.10;;;8.40;99.90;;;;;;5006131;28;20052;-83
2022/12/24 21:24:39;;;;;;;4.13;3.00;;;8.50;99.90;;;;;;5017777;28;20018;-83
2022/12/24 21:27:05;;;;;;;3.83;2.67;;;8.40;99.90;;;;;;5002994;28;20076;-83
2022/12/24 21:29:30;;;;;;;3.67;2.78;;;8.40;99.90;;;;;;5016231;28;20025;-83
2022/12/24 21:31:56;;;;;;;3.38;2.10;;;8.50;99.90;;;;;;5001112;28;20037;-83
2022/12/24 21:34:22;;;;;;;2.88;2.53;;;8.50;99.90;;;;;;4999160;28;20026;-83
2022/12/24 21:36:49;;;;;;;2.65;2.22;;;8.40;99.90;;;;;;5017240;28;20057;-83
2022/12/24 21:39:26;;;;;;;2.92;1.90;;;8.50;99.90;;;;;;4999641;28;20075;-83
2022/12/24 21:41:52;;;;;;;3.00;1.92;;;8.50;99.90;;;;;;5017108;28;20021;-83
2022/12/24 21:44:18;;;;;;;2.83;2.20;;;8.50;99.90;;;;;;5000191;28;20028;-83
2022/12/24 21:46:43;;;;;;;3.05;2.00;;;8.50;99.90;;;;;;5027336;28;20026;-83
2022/12/24 21:51:54;;;;;;;3.83;2.45;;;8.50;99.90;;;;;;5019415;28;20044;-83
2022/12/24 21:54:29;;;;;;;5.13;2.72;;;8.50;99.90;;;;;;5001800;28;20040;-82
2022/12/24 21:59:45;;;;;;;6.22;3.78;;;8.50;99.90;;;;;;5020720;28;20080;-82
2022/12/24 22:02:13;;;;;;;10.05;4.57;;;8.50;99.90;;;;;;5001696;28;20022;-82
2022/12/24 22:04:39;;;;;;;9.25;4.40;;;8.50;99.90;;;;;;5019239;28;20030;-82
2022/12/24 22:12:34;;;;;;;5.60;3.72;;;8.50;99.90;;;;;;5017796;28;20137;-82
2022/12/24 22:15:00;;;;;;;6.30;3.33;;;8.50;99.90;;;;;;4999654;28;20122;-82
2022/12/24 22:17:27;;;;;;;6.78;3.45;;;8.50;99.90;;;;;;5017003;28;20179;-82
2022/12/24 22:19:54;;;;;;;6.68;3.25;;;8.50;99.90;;;;;;5016687;28;20034;-83
2022/12/24 22:22:20;;;;;;;5.38;3.70;;;8.50;99.90;;;;;;5016798;28;20030;-82
2022/12/24 22:24:46;;;;;;;7.00;3.58;;;8.50;99.90;;;;;;5016760;28;20034;-83
2022/12/24 22:27:12;;;;;;;10.98;4.57;;;8.50;99.90;;;;;;5016863;28;20034;-82
2022/12/24 22:29:38;;;;;;;6.50;3.97;;;8.50;99.90;;;;;;5016761;28;20026;-82
2022/12/24 22:32:04;;;;;;;5.10;3.42;;;8.40;99.90;;;;;;4999244;28;20481;-82
2022/12/24 22:34:30;;;;;;;7.82;3.90;;;8.50;99.90;;;;;;5017094;28;20080;-82
2022/12/24 22:36:56;;;;;;;5.18;3.30;;;8.50;99.90;;;;;;5017236;28;20010;-82
2022/12/24 22:39:24;;;;;;;6.38;3.53;;;8.40;99.90;;;;;;4998951;28;20176;-83
2022/12/24 22:41:57;;;;;;;6.03;3.45;;;8.40;99.90;;;;;;4965906;28;20117;-83
2022/12/24 22:44:23;;;;;;;3.72;2.78;;;8.40;99.90;;;;;;5017734;28;20053;-82
2022/12/24 22:46:49;;;;;;;5.97;3.63;;;8.40;99.90;;;;;;5002449;28;20033;-82
2022/12/24 22:49:14;;;;;;;4.63;3.05;;;8.50;99.90;;;;;;5022460;28;20022;-82
2022/12/24 22:51:41;;;;;;;4.85;3.03;;;8.50;99.90;;;;;;5025304;28;20026;-82
2022/12/24 22:54:07;;;;;;;5.55;3.10;;;8.50;99.90;;;;;;4994208;28;20064;-82
2022/12/24 22:56:33;;;;;;;4.30;2.45;;;8.50;99.90;;;;;;5028612;28;20026;-82
2022/12/24 22:58:59;;;;;;;4.22;2.80;;;8.50;99.90;;;;;;5015976;28;20084;-82
2022/12/24 23:01:36;;;;;;;4.35;2.90;;;8.50;99.90;;;;;;5035659;28;20018;-82
2022/12/24 23:04:03;;;;;;;4.90;3.05;;;8.50;99.90;;;;;;5018306;28;20086;-82
2022/12/24 23:06:29;;;;;;;4.40;2.47;;;8.50;99.90;;;;;;5018309;28;20269;-82
2022/12/24 23:08:55;;;;;;;3.65;2.38;;;8.50;99.90;;;;;;5018659;28;20067;-82
2022/12/24 23:11:20;;;;;;;5.43;2.75;;;8.50;99.90;;;;;;5035827;28;20018;-82
2022/12/24 23:16:30;;;;;;;5.22;2.80;;;8.50;99.90;;;;;;5025499;28;20110;-82
2022/12/24 23:18:58;;;;;;;3.42;2.40;;;8.50;99.90;;;;;;5029246;28;20038;-83
2022/12/24 23:21:26;;;;;;;3.17;2.53;;;8.40;99.90;;;;;;5031885;28;20022;-82
2022/12/24 23:23:52;;;;;;;2.95;2.33;;;8.40;99.90;;;;;;4991568;28;20038;-82
2022/12/24 23:26:21;;;;;;;3.30;2.30;;;8.40;99.90;;;;;;4996935;28;20033;-82
2022/12/24 23:28:51;;;;;;;3.05;2.03;;;8.40;99.90;;;;;;5014144;28;20057;-82
2022/12/24 23:31:18;;;;;;;3.20;2.25;;;8.40;99.90;;;;;;5016052;28;20033;-82
2022/12/24 23:33:45;;;;;;;2.45;1.80;;;8.40;99.90;;;;;;5015368;28;20100;-82
2022/12/24 23:36:11;;;;;;;2.95;1.98;;;8.40;99.90;;;;;;4997266;28;20057;-82
2022/12/24 23:38:37;;;;;;;3.70;2.03;;;8.40;99.90;;;;;;5006936;28;20022;-83
2022/12/24 23:41:07;;;;;;;2.05;1.60;;;8.30;99.90;;;;;;5013667;28;20033;-83
2022/12/24 23:43:54;;;;;;;3.20;2.05;;;8.40;99.90;;;;;;4980192;28;20026;-83
2022/12/24 23:46:21;;;;;;;2.65;1.80;;;8.30;99.90;;;;;;5011455;28;20034;-82
2022/12/24 23:48:53;;;;;;;3.15;2.10;;;8.40;99.90;;;;;;5014643;28;20062;-83
2022/12/24 23:51:35;;;;;;;2.20;1.55;;;8.30;99.90;;;;;;5014576;28;20042;-83
2022/12/24 23:54:01;;;;;;;2.47;1.77;;;8.30;99.90;;;;;;5015717;28;20047;-82
2022/12/24 23:56:26;;;;;;;4.40;2.28;;;8.30;99.90;;;;;;5016711;28;20064;-82
2022/12/24 23:58:54;;;;;;;2.78;1.90;;;8.30;99.90;;;;;;5018354;28;20030;-83
